AUI1980 UKBB-UKOO
Flight info
| Callsign | AUI1980 |
|---|---|
| Flight time | 0h 49m |
| Altitude | 31000 |
| Route | BASOR M856 GOBLI L919 ODSAN |
| Aircraft | B738/M-SDE2E3FGHIRWXY/LB1 |
Departure
| Time | 2026-04-22 16:59 |
|---|---|
| Airport | Boryspil International Airport (UKBB) |
Arrival
| Time | 2026-04-22 17:48 |
|---|---|
| Airport | Odesa International Airport (UKOO) |
| Time | Latitude | Longitude | Altitude | Speed | Heading |
|---|---|---|---|---|---|
| 2026-04-22 16:39 | 50.35268 | 30.90142 | 414 ft | 0 kts | 92° |
| 2026-04-22 16:48 | 50.35268 | 30.90137 | 414 ft | 3 kts | 92° |
| 2026-04-22 16:48 | 50.35270 | 30.90096 | 411 ft | 4 kts | 94° |
| 2026-04-22 16:49 | 50.35272 | 30.90054 | 411 ft | 4 kts | 93° |
| 2026-04-22 16:49 | 50.35272 | 30.90023 | 414 ft | 2 kts | 26° |
| 2026-04-22 16:49 | 50.35260 | 30.90022 | 404 ft | 3 kts | 6° |
| 2026-04-22 16:49 | 50.35237 | 30.90021 | 405 ft | 4 kts | 1° |
| 2026-04-22 16:50 | 50.35229 | 30.90021 | 406 ft | 0 kts | 1° |
| 2026-04-22 16:53 | 50.35243 | 30.90022 | 409 ft | 7 kts | 2° |
| 2026-04-22 16:53 | 50.35293 | 30.90025 | 411 ft | 8 kts | 2° |
| 2026-04-22 16:53 | 50.35345 | 30.90028 | 412 ft | 8 kts | 2° |
| 2026-04-22 16:53 | 50.35414 | 30.90036 | 410 ft | 11 kts | 14° |
| 2026-04-22 16:54 | 50.35457 | 30.90120 | 407 ft | 10 kts | 85° |
| 2026-04-22 16:54 | 50.35467 | 30.90234 | 409 ft | 11 kts | 60° |
| 2026-04-22 16:54 | 50.35533 | 30.90284 | 414 ft | 11 kts | 7° |
| 2026-04-22 16:54 | 50.35608 | 30.90290 | 412 ft | 11 kts | 2° |
| 2026-04-22 16:55 | 50.35680 | 30.90295 | 410 ft | 10 kts | 2° |
| 2026-04-22 16:55 | 50.35761 | 30.90301 | 412 ft | 14 kts | 3° |
| 2026-04-22 16:55 | 50.35864 | 30.90309 | 411 ft | 15 kts | 3° |
| 2026-04-22 16:55 | 50.35965 | 30.90317 | 412 ft | 14 kts | 3° |
| 2026-04-22 16:56 | 50.36055 | 30.90357 | 414 ft | 14 kts | 39° |
| 2026-04-22 16:56 | 50.36087 | 30.90486 | 413 ft | 13 kts | 98° |
| 2026-04-22 16:56 | 50.36045 | 30.90604 | 407 ft | 13 kts | 137° |
| 2026-04-22 16:56 | 50.35963 | 30.90637 | 411 ft | 12 kts | 175° |
| 2026-04-22 16:57 | 50.35919 | 30.90635 | 417 ft | 0 kts | 181° |
| 2026-04-22 16:58 | 50.35894 | 30.90635 | 414 ft | 19 kts | 181° |
| 2026-04-22 16:58 | 50.35212 | 30.90586 | 418 ft | 123 kts | 182° |
| 2026-04-22 16:58 | 50.34153 | 30.90502 | 480 ft | 178 kts | 183° |
| 2026-04-22 16:58 | 50.32815 | 30.90376 | 963 ft | 204 kts | 185° |
| 2026-04-22 16:59 | 50.31354 | 30.90186 | 1581 ft | 215 kts | 185° |
| 2026-04-22 16:59 | 50.29840 | 30.89988 | 2262 ft | 220 kts | 185° |
| 2026-04-22 16:59 | 50.28312 | 30.89794 | 3009 ft | 220 kts | 184° |
| 2026-04-22 16:59 | 50.26742 | 30.89708 | 3397 ft | 236 kts | 182° |
| 2026-04-22 17:00 | 50.25775 | 30.89671 | 3715 ft | 241 kts | 182° |
| 2026-04-22 17:00 | 50.23423 | 30.89578 | 4627 ft | 245 kts | 182° |
| 2026-04-22 17:00 | 50.21706 | 30.89502 | 5298 ft | 248 kts | 182° |
| 2026-04-22 17:01 | 50.19971 | 30.89422 | 6027 ft | 249 kts | 182° |
| 2026-04-22 17:01 | 50.18226 | 30.89322 | 6718 ft | 253 kts | 186° |
| 2026-04-22 17:01 | 50.16446 | 30.88733 | 7167 ft | 271 kts | 197° |
| 2026-04-22 17:01 | 50.14621 | 30.87826 | 7883 ft | 278 kts | 198° |
| 2026-04-22 17:02 | 50.12769 | 30.86885 | 8720 ft | 281 kts | 198° |
| 2026-04-22 17:02 | 50.10890 | 30.85965 | 9540 ft | 285 kts | 197° |
| 2026-04-22 17:02 | 50.08980 | 30.85060 | 10310 ft | 290 kts | 197° |
| 2026-04-22 17:02 | 50.06976 | 30.84124 | 10594 ft | 313 kts | 197° |
| 2026-04-22 17:03 | 50.04792 | 30.83136 | 10798 ft | 337 kts | 194° |
| 2026-04-22 17:03 | 50.02447 | 30.82342 | 11237 ft | 351 kts | 191° |
| 2026-04-22 17:03 | 50.00020 | 30.81665 | 11942 ft | 356 kts | 190° |
| 2026-04-22 17:03 | 49.97573 | 30.81014 | 12702 ft | 359 kts | 190° |
| 2026-04-22 17:04 | 49.95132 | 30.80361 | 13417 ft | 362 kts | 190° |
| 2026-04-22 17:04 | 49.92637 | 30.79681 | 14115 ft | 366 kts | 190° |
| 2026-04-22 17:04 | 49.90112 | 30.78981 | 14796 ft | 370 kts | 190° |
| 2026-04-22 17:04 | 49.87568 | 30.78267 | 15466 ft | 373 kts | 191° |
| 2026-04-22 17:05 | 49.84994 | 30.77540 | 16122 ft | 377 kts | 191° |
| 2026-04-22 17:05 | 49.82400 | 30.76805 | 16755 ft | 381 kts | 191° |
| 2026-04-22 17:05 | 49.79784 | 30.76064 | 17373 ft | 384 kts | 191° |
| 2026-04-22 17:05 | 49.77141 | 30.75316 | 17977 ft | 388 kts | 191° |
| 2026-04-22 17:06 | 49.74477 | 30.74562 | 18568 ft | 391 kts | 191° |
| 2026-04-22 17:06 | 49.71819 | 30.73810 | 19133 ft | 395 kts | 191° |
| 2026-04-22 17:06 | 49.69108 | 30.73045 | 19690 ft | 398 kts | 191° |
| 2026-04-22 17:06 | 49.66369 | 30.72273 | 20234 ft | 401 kts | 191° |
| 2026-04-22 17:07 | 49.63611 | 30.71496 | 20762 ft | 404 kts | 191° |
| 2026-04-22 17:07 | 49.60833 | 30.70714 | 21275 ft | 408 kts | 191° |
| 2026-04-22 17:07 | 49.58027 | 30.69926 | 21773 ft | 411 kts | 191° |
| 2026-04-22 17:07 | 49.55202 | 30.69226 | 22251 ft | 414 kts | 186° |
| 2026-04-22 17:08 | 49.52304 | 30.69039 | 22716 ft | 417 kts | 181° |
| 2026-04-22 17:08 | 49.49388 | 30.69009 | 23168 ft | 420 kts | 180° |
| 2026-04-22 17:08 | 49.46453 | 30.69004 | 23602 ft | 423 kts | 180° |
| 2026-04-22 17:08 | 49.43494 | 30.68988 | 24032 ft | 426 kts | 180° |
| 2026-04-22 17:09 | 49.40510 | 30.68952 | 24463 ft | 429 kts | 181° |
| 2026-04-22 17:09 | 49.37557 | 30.68899 | 24868 ft | 431 kts | 181° |
| 2026-04-22 17:09 | 49.35525 | 30.68858 | 25137 ft | 433 kts | 181° |
| 2026-04-22 17:09 | 49.31512 | 30.68768 | 25632 ft | 437 kts | 181° |
| 2026-04-22 17:10 | 49.28469 | 30.68700 | 26015 ft | 439 kts | 181° |
| 2026-04-22 17:10 | 49.25406 | 30.68631 | 26377 ft | 441 kts | 181° |
| 2026-04-22 17:10 | 49.22323 | 30.68564 | 26716 ft | 444 kts | 181° |
| 2026-04-22 17:10 | 49.19182 | 30.68495 | 27058 ft | 446 kts | 181° |
| 2026-04-22 17:11 | 49.16066 | 30.68428 | 27388 ft | 449 kts | 181° |
| 2026-04-22 17:11 | 49.12936 | 30.68362 | 27704 ft | 451 kts | 181° |
| 2026-04-22 17:11 | 49.09826 | 30.68296 | 28018 ft | 453 kts | 181° |
| 2026-04-22 17:11 | 49.06671 | 30.68230 | 28402 ft | 453 kts | 181° |
| 2026-04-22 17:12 | 49.03521 | 30.68164 | 28875 ft | 451 kts | 181° |
| 2026-04-22 17:12 | 49.00394 | 30.68098 | 29334 ft | 449 kts | 181° |
| 2026-04-22 17:12 | 48.97266 | 30.68032 | 29731 ft | 448 kts | 181° |
| 2026-04-22 17:12 | 48.94150 | 30.67966 | 30099 ft | 448 kts | 181° |
| 2026-04-22 17:13 | 48.91040 | 30.67901 | 30480 ft | 447 kts | 181° |
| 2026-04-22 17:13 | 48.87922 | 30.67835 | 30867 ft | 446 kts | 181° |
| 2026-04-22 17:13 | 48.84811 | 30.67770 | 30990 ft | 450 kts | 181° |
| 2026-04-22 17:13 | 48.81665 | 30.67704 | 30998 ft | 452 kts | 181° |
| 2026-04-22 17:14 | 48.75405 | 30.67573 | 30991 ft | 446 kts | 181° |
| 2026-04-22 17:14 | 48.69255 | 30.67445 | 31009 ft | 445 kts | 181° |
| 2026-04-22 17:15 | 48.63058 | 30.67316 | 31007 ft | 446 kts | 181° |
| 2026-04-22 17:15 | 48.56833 | 30.67187 | 31004 ft | 447 kts | 181° |
| 2026-04-22 17:16 | 48.51619 | 30.67079 | 31001 ft | 448 kts | 181° |
| 2026-04-22 17:16 | 48.45414 | 30.66950 | 31001 ft | 448 kts | 181° |
| 2026-04-22 17:17 | 48.39170 | 30.66822 | 31001 ft | 448 kts | 181° |
| 2026-04-22 17:17 | 48.32933 | 30.66694 | 31000 ft | 448 kts | 181° |
| 2026-04-22 17:18 | 48.26698 | 30.66566 | 31001 ft | 447 kts | 181° |
| 2026-04-22 17:18 | 48.20513 | 30.66439 | 31001 ft | 447 kts | 181° |
| 2026-04-22 17:19 | 48.08099 | 30.66095 | 30997 ft | 446 kts | 186° |
| 2026-04-22 17:20 | 47.95878 | 30.63014 | 31002 ft | 445 kts | 190° |
| 2026-04-22 17:21 | 47.86767 | 30.60653 | 30991 ft | 437 kts | 190° |
| 2026-04-22 17:22 | 47.77827 | 30.58414 | 30939 ft | 435 kts | 189° |
| 2026-04-22 17:22 | 47.71938 | 30.56946 | 30149 ft | 427 kts | 189° |
| 2026-04-22 17:23 | 47.69020 | 30.56220 | 29718 ft | 423 kts | 189° |
| 2026-04-22 17:23 | 47.63256 | 30.54786 | 28818 ft | 416 kts | 189° |
| 2026-04-22 17:23 | 47.60413 | 30.54081 | 28368 ft | 412 kts | 189° |
| 2026-04-22 17:24 | 47.57596 | 30.53382 | 27921 ft | 409 kts | 189° |
| 2026-04-22 17:24 | 47.54795 | 30.52688 | 27470 ft | 406 kts | 189° |
| 2026-04-22 17:24 | 47.52023 | 30.52002 | 27040 ft | 402 kts | 189° |
| 2026-04-22 17:24 | 47.49270 | 30.51321 | 26605 ft | 399 kts | 189° |
| 2026-04-22 17:25 | 47.46540 | 30.50646 | 26185 ft | 396 kts | 189° |
| 2026-04-22 17:25 | 47.43835 | 30.49979 | 25755 ft | 393 kts | 189° |
| 2026-04-22 17:25 | 47.41152 | 30.49318 | 25335 ft | 390 kts | 189° |
| 2026-04-22 17:25 | 47.38488 | 30.48662 | 24919 ft | 386 kts | 189° |
| 2026-04-22 17:26 | 47.35878 | 30.48019 | 24511 ft | 384 kts | 189° |
| 2026-04-22 17:26 | 47.33251 | 30.47374 | 24095 ft | 381 kts | 189° |
| 2026-04-22 17:26 | 47.30644 | 30.46734 | 23683 ft | 378 kts | 189° |
| 2026-04-22 17:26 | 47.28056 | 30.46099 | 23268 ft | 375 kts | 189° |
| 2026-04-22 17:27 | 47.25491 | 30.45470 | 22863 ft | 373 kts | 189° |
| 2026-04-22 17:27 | 47.22946 | 30.44847 | 22458 ft | 370 kts | 189° |
| 2026-04-22 17:27 | 47.20411 | 30.44227 | 22053 ft | 367 kts | 189° |
| 2026-04-22 17:27 | 47.17926 | 30.43620 | 21656 ft | 365 kts | 189° |
| 2026-04-22 17:28 | 47.15427 | 30.43055 | 21263 ft | 362 kts | 185° |
| 2026-04-22 17:28 | 47.12940 | 30.42926 | 21069 ft | 354 kts | 180° |
| 2026-04-22 17:28 | 47.10487 | 30.43027 | 20713 ft | 351 kts | 178° |
| 2026-04-22 17:28 | 47.08051 | 30.43191 | 20322 ft | 349 kts | 178° |
| 2026-04-22 17:29 | 47.05621 | 30.43353 | 19931 ft | 348 kts | 178° |
| 2026-04-22 17:29 | 47.03210 | 30.43495 | 19540 ft | 346 kts | 178° |
| 2026-04-22 17:29 | 47.00809 | 30.43617 | 19147 ft | 345 kts | 178° |
| 2026-04-22 17:29 | 46.98411 | 30.43725 | 18754 ft | 343 kts | 179° |
| 2026-04-22 17:30 | 46.96027 | 30.43824 | 18362 ft | 342 kts | 179° |
| 2026-04-22 17:30 | 46.93649 | 30.43917 | 17969 ft | 340 kts | 179° |
| 2026-04-22 17:30 | 46.91286 | 30.44007 | 17580 ft | 339 kts | 179° |
| 2026-04-22 17:30 | 46.88933 | 30.44094 | 17192 ft | 338 kts | 179° |
| 2026-04-22 17:31 | 46.86620 | 30.44180 | 16808 ft | 336 kts | 179° |
| 2026-04-22 17:31 | 46.84285 | 30.44266 | 16419 ft | 335 kts | 179° |
| 2026-04-22 17:31 | 46.81957 | 30.44352 | 16031 ft | 333 kts | 179° |
| 2026-04-22 17:31 | 46.79638 | 30.44437 | 15645 ft | 332 kts | 179° |
| 2026-04-22 17:32 | 46.77336 | 30.44521 | 15261 ft | 330 kts | 179° |
| 2026-04-22 17:32 | 46.75039 | 30.44605 | 14872 ft | 329 kts | 179° |
| 2026-04-22 17:32 | 46.72754 | 30.44689 | 14491 ft | 327 kts | 179° |
| 2026-04-22 17:32 | 46.70478 | 30.44772 | 14111 ft | 326 kts | 179° |
| 2026-04-22 17:33 | 46.68974 | 30.44827 | 13857 ft | 325 kts | 179° |
| 2026-04-22 17:33 | 46.65995 | 30.44936 | 13350 ft | 323 kts | 179° |
| 2026-04-22 17:33 | 46.63752 | 30.45018 | 12974 ft | 322 kts | 179° |
| 2026-04-22 17:33 | 46.61517 | 30.45100 | 12596 ft | 320 kts | 179° |
| 2026-04-22 17:34 | 46.59295 | 30.45181 | 12221 ft | 319 kts | 179° |
| 2026-04-22 17:34 | 46.57080 | 30.45262 | 11849 ft | 317 kts | 179° |
| 2026-04-22 17:34 | 46.54877 | 30.45342 | 11485 ft | 316 kts | 179° |
| 2026-04-22 17:34 | 46.52702 | 30.45641 | 11141 ft | 313 kts | 167° |
| 2026-04-22 17:35 | 46.50627 | 30.46496 | 10845 ft | 309 kts | 163° |
| 2026-04-22 17:35 | 46.48578 | 30.47435 | 10515 ft | 307 kts | 162° |
| 2026-04-22 17:35 | 46.46577 | 30.48359 | 10383 ft | 298 kts | 163° |
| 2026-04-22 17:35 | 46.44624 | 30.49248 | 10216 ft | 290 kts | 163° |
| 2026-04-22 17:36 | 46.42722 | 30.50102 | 10081 ft | 282 kts | 163° |
| 2026-04-22 17:36 | 46.40871 | 30.50923 | 9952 ft | 274 kts | 163° |
| 2026-04-22 17:36 | 46.39050 | 30.51725 | 9685 ft | 272 kts | 163° |
| 2026-04-22 17:36 | 46.37265 | 30.52507 | 9419 ft | 271 kts | 163° |
| 2026-04-22 17:37 | 46.35444 | 30.53303 | 9139 ft | 269 kts | 163° |
| 2026-04-22 17:37 | 46.33657 | 30.54082 | 8859 ft | 268 kts | 163° |
| 2026-04-22 17:37 | 46.31897 | 30.54848 | 8573 ft | 267 kts | 163° |
| 2026-04-22 17:37 | 46.30123 | 30.55619 | 8300 ft | 266 kts | 163° |
| 2026-04-22 17:38 | 46.28354 | 30.56388 | 8016 ft | 265 kts | 163° |
| 2026-04-22 17:38 | 46.26595 | 30.57151 | 7830 ft | 260 kts | 163° |
| 2026-04-22 17:38 | 46.24887 | 30.57892 | 7702 ft | 253 kts | 163° |
| 2026-04-22 17:38 | 46.23223 | 30.58613 | 7577 ft | 246 kts | 163° |
| 2026-04-22 17:39 | 46.21605 | 30.59313 | 7402 ft | 241 kts | 163° |
| 2026-04-22 17:39 | 46.19987 | 30.60013 | 7078 ft | 244 kts | 163° |
| 2026-04-22 17:39 | 46.16738 | 30.61414 | 6580 ft | 241 kts | 163° |
| 2026-04-22 17:40 | 46.15163 | 30.62093 | 6499 ft | 233 kts | 163° |
| 2026-04-22 17:40 | 46.13644 | 30.62748 | 6318 ft | 231 kts | 164° |
| 2026-04-22 17:40 | 46.12142 | 30.63577 | 6069 ft | 232 kts | 145° |
| 2026-04-22 17:40 | 46.11129 | 30.65333 | 5844 ft | 229 kts | 111° |
| 2026-04-22 17:41 | 46.10941 | 30.67604 | 5632 ft | 230 kts | 82° |
| 2026-04-22 17:41 | 46.11314 | 30.69839 | 5408 ft | 231 kts | 73° |
| 2026-04-22 17:41 | 46.11792 | 30.72047 | 5159 ft | 231 kts | 72° |
| 2026-04-22 17:41 | 46.12269 | 30.74249 | 4919 ft | 230 kts | 72° |
| 2026-04-22 17:42 | 46.12758 | 30.76445 | 4666 ft | 229 kts | 66° |
| 2026-04-22 17:42 | 46.13784 | 30.78133 | 4402 ft | 226 kts | 25° |
| 2026-04-22 17:42 | 46.15297 | 30.78457 | 4200 ft | 223 kts | 352° |
| 2026-04-22 17:42 | 46.16841 | 30.78126 | 3947 ft | 226 kts | 351° |
| 2026-04-22 17:43 | 46.18383 | 30.77719 | 3719 ft | 223 kts | 347° |
| 2026-04-22 17:43 | 46.19867 | 30.77172 | 3482 ft | 217 kts | 343° |
| 2026-04-22 17:43 | 46.21288 | 30.76575 | 3244 ft | 210 kts | 343° |
| 2026-04-22 17:43 | 46.22662 | 30.75980 | 2983 ft | 205 kts | 342° |
| 2026-04-22 17:44 | 46.24007 | 30.75397 | 2786 ft | 196 kts | 342° |
| 2026-04-22 17:44 | 46.25280 | 30.74845 | 2675 ft | 185 kts | 342° |
| 2026-04-22 17:44 | 46.26470 | 30.74329 | 2659 ft | 180 kts | 342° |
| 2026-04-22 17:44 | 46.27670 | 30.73810 | 2644 ft | 180 kts | 342° |
| 2026-04-22 17:45 | 46.28858 | 30.73295 | 2647 ft | 177 kts | 342° |
| 2026-04-22 17:45 | 46.30037 | 30.72784 | 2467 ft | 174 kts | 342° |
| 2026-04-22 17:45 | 46.31186 | 30.72287 | 2241 ft | 169 kts | 342° |
| 2026-04-22 17:45 | 46.32294 | 30.71807 | 2028 ft | 162 kts | 342° |
| 2026-04-22 17:46 | 46.33363 | 30.71345 | 1823 ft | 161 kts | 342° |
| 2026-04-22 17:46 | 46.34445 | 30.70876 | 1609 ft | 160 kts | 342° |
| 2026-04-22 17:46 | 46.35488 | 30.70425 | 1384 ft | 153 kts | 342° |
| 2026-04-22 17:46 | 46.36499 | 30.69987 | 1195 ft | 152 kts | 342° |
| 2026-04-22 17:47 | 46.37504 | 30.69552 | 999 ft | 153 kts | 342° |
| 2026-04-22 17:47 | 46.38508 | 30.69118 | 824 ft | 148 kts | 342° |
| 2026-04-22 17:47 | 46.39484 | 30.68695 | 600 ft | 145 kts | 342° |
| 2026-04-22 17:47 | 46.40455 | 30.68275 | 409 ft | 146 kts | 343° |
| 2026-04-22 17:48 | 46.41102 | 30.67995 | 280 ft | 146 kts | 343° |
| 2026-04-22 17:48 | 46.42343 | 30.67456 | 172 ft | 118 kts | 343° |
| 2026-04-22 17:48 | 46.42915 | 30.67210 | 170 ft | 25 kts | 343° |
| 2026-04-22 17:48 | 46.42934 | 30.67201 | 170 ft | 7 kts | 343° |
| 2026-04-22 17:49 | 46.43042 | 30.67155 | 171 ft | 21 kts | 343° |
| 2026-04-22 17:49 | 46.43182 | 30.67094 | 172 ft | 21 kts | 343° |
| 2026-04-22 17:49 | 46.43326 | 30.67032 | 173 ft | 21 kts | 343° |
| 2026-04-22 17:49 | 46.43467 | 30.66971 | 174 ft | 21 kts | 343° |
| 2026-04-22 17:50 | 46.43603 | 30.66912 | 174 ft | 20 kts | 343° |
| 2026-04-22 17:50 | 46.43734 | 30.66855 | 171 ft | 20 kts | 343° |
| 2026-04-22 17:50 | 46.43860 | 30.66804 | 171 ft | 16 kts | 356° |
| 2026-04-22 17:50 | 46.43921 | 30.66918 | 172 ft | 15 kts | 73° |
| 2026-04-22 17:51 | 46.43951 | 30.67062 | 172 ft | 15 kts | 73° |
| 2026-04-22 17:51 | 46.43980 | 30.67199 | 172 ft | 14 kts | 74° |
| 2026-04-22 17:51 | 46.44011 | 30.67311 | 172 ft | 11 kts | 38° |
| 2026-04-22 17:51 | 46.44087 | 30.67306 | 172 ft | 11 kts | 348° |
| 2026-04-22 17:52 | 46.44142 | 30.67321 | 172 ft | 6 kts | 61° |
| 2026-04-22 17:52 | 46.44148 | 30.67361 | 172 ft | 0 kts | 79° |
| 2026-04-22 17:52 | 46.44149 | 30.67367 | 172 ft | 1 kts | 79° |
| 2026-04-22 17:52 | 46.44150 | 30.67375 | 172 ft | 1 kts | 79° |
| 2026-04-22 17:53 | 46.44151 | 30.67382 | 172 ft | 1 kts | 79° |
| 2026-04-22 17:53 | 46.44151 | 30.67387 | 172 ft | 0 kts | 79° |